sensor_id;sensor_type;location;lat;lon;timestamp;pressure;altitude;pressure_sealevel;temperature;humidity
13767;BME280;47980;48.794;9.176;2023-05-09T00:02:30;98529.47;;;15.41;100.00
13767;BME280;47980;48.794;9.176;2023-05-09T00:05:04;98528.25;;;15.39;100.00
13767;BME280;47980;48.794;9.176;2023-05-09T00:07:37;98522.03;;;15.35;100.00
13767;BME280;47980;48.794;9.176;2023-05-09T00:10:09;98520.31;;;15.43;100.00
13767;BME280;47980;48.794;9.176;2023-05-09T00:12:40;98523.34;;;15.41;100.00
13767;BME280;47980;48.794;9.176;2023-05-09T00:15:14;98515.59;;;15.36;100.00
13767;BME280;47980;48.794;9.176;2023-05-09T00:17:46;98525.31;;;15.44;100.00
13767;BME280;47980;48.794;9.176;2023-05-09T00:20:17;98526.09;;;15.45;100.00
13767;BME280;47980;48.794;9.176;2023-05-09T00:22:49;98518.50;;;15.62;100.00
13767;BME280;47980;48.794;9.176;2023-05-09T00:25:20;98499.78;;;15.62;100.00
13767;BME280;47980;48.794;9.176;2023-05-09T00:27:52;98503.13;;;15.59;100.00
13767;BME280;47980;48.794;9.176;2023-05-09T00:30:25;98506.25;;;15.61;100.00
13767;BME280;47980;48.794;9.176;2023-05-09T00:32:56;98503.91;;;15.60;100.00
13767;BME280;47980;48.794;9.176;2023-05-09T00:35:28;98495.13;;;15.59;100.00
13767;BME280;47980;48.794;9.176;2023-05-09T00:38:01;98490.72;;;15.51;100.00
13767;BME280;47980;48.794;9.176;2023-05-09T00:40:33;98499.41;;;15.64;100.00
13767;BME280;47980;48.794;9.176;2023-05-09T00:43:04;98493.22;;;15.60;100.00
13767;BME280;47980;48.794;9.176;2023-05-09T00:45:37;98491.66;;;15.59;100.00
13767;BME280;47980;48.794;9.176;2023-05-09T00:48:08;98493.75;;;15.66;100.00
13767;BME280;47980;48.794;9.176;2023-05-09T00:50:42;98490.03;;;15.70;100.00
13767;BME280;47980;48.794;9.176;2023-05-09T00:53:13;98486.41;;;15.62;100.00
13767;BME280;47980;48.794;9.176;2023-05-09T00:55:45;98478.00;;;15.64;100.00
13767;BME280;47980;48.794;9.176;2023-05-09T00:58:17;98478.91;;;15.52;100.00
13767;BME280;47980;48.794;9.176;2023-05-09T01:00:50;98473.56;;;15.52;100.00
13767;BME280;47980;48.794;9.176;2023-05-09T01:03:22;98471.66;;;15.53;100.00
13767;BME280;47980;48.794;9.176;2023-05-09T01:05:56;98469.94;;;15.45;100.00
13767;BME280;47980;48.794;9.176;2023-05-09T01:08:42;98474.09;;;15.42;100.00
13767;BME280;47980;48.794;9.176;2023-05-09T01:11:21;98463.50;;;15.30;100.00
13767;BME280;47980;48.794;9.176;2023-05-09T01:14:01;98462.44;;;15.34;100.00
13767;BME280;47980;48.794;9.176;2023-05-09T01:16:47;98464.72;;;15.32;100.00
13767;BME280;47980;48.794;9.176;2023-05-09T01:19:38;98467.72;;;15.31;100.00
13767;BME280;47980;48.794;9.176;2023-05-09T01:22:16;98462.38;;;15.31;100.00
13767;BME280;47980;48.794;9.176;2023-05-09T01:25:03;98461.59;;;15.30;100.00
13767;BME280;47980;48.794;9.176;2023-05-09T01:27:41;98462.97;;;15.24;100.00
13767;BME280;47980;48.794;9.176;2023-05-09T01:30:20;98465.66;;;15.08;100.00
13767;BME280;47980;48.794;9.176;2023-05-09T01:32:56;98464.03;;;15.04;100.00
13767;BME280;47980;48.794;9.176;2023-05-09T01:35:32;98458.69;;;15.04;100.00
13767;BME280;47980;48.794;9.176;2023-05-09T01:38:13;98460.81;;;15.14;100.00
13767;BME280;47980;48.794;9.176;2023-05-09T01:40:51;98459.53;;;15.24;100.00
13767;BME280;47980;48.794;9.176;2023-05-09T01:43:24;98453.69;;;15.18;100.00
13767;BME280;47980;48.794;9.176;2023-05-09T01:45:59;98457.03;;;15.15;100.00
13767;BME280;47980;48.794;9.176;2023-05-09T01:48:32;98451.50;;;15.24;100.00
13767;BME280;47980;48.794;9.176;2023-05-09T01:51:08;98447.72;;;15.09;100.00
13767;BME280;47980;48.794;9.176;2023-05-09T01:53:42;98444.69;;;15.10;100.00
13767;BME280;47980;48.794;9.176;2023-05-09T01:56:15;98439.53;;;15.17;100.00
13767;BME280;47980;48.794;9.176;2023-05-09T01:58:49;98442.56;;;15.16;100.00
13767;BME280;47980;48.794;9.176;2023-05-09T02:01:22;98438.34;;;15.15;100.00
13767;BME280;47980;48.794;9.176;2023-05-09T02:03:56;98434.09;;;15.14;100.00
13767;BME280;47980;48.794;9.176;2023-05-09T02:06:27;98434.38;;;15.09;100.00
13767;BME280;47980;48.794;9.176;2023-05-09T02:09:01;98442.66;;;15.04;100.00
13767;BME280;47980;48.794;9.176;2023-05-09T02:11:32;98447.13;;;15.00;100.00
13767;BME280;47980;48.794;9.176;2023-05-09T02:14:04;98446.69;;;14.98;100.00
13767;BME280;47980;48.794;9.176;2023-05-09T02:16:37;98447.13;;;15.00;100.00
13767;BME280;47980;48.794;9.176;2023-05-09T02:19:09;98446.44;;;15.03;100.00
13767;BME280;47980;48.794;9.176;2023-05-09T02:21:41;98448.94;;;15.11;100.00
13767;BME280;47980;48.794;9.176;2023-05-09T02:24:12;98438.34;;;15.15;100.00
13767;BME280;47980;48.794;9.176;2023-05-09T02:26:44;98453.25;;;15.16;100.00
13767;BME280;47980;48.794;9.176;2023-05-09T02:29:19;98457.91;;;15.19;100.00
13767;BME280;47980;48.794;9.176;2023-05-09T02:31:54;98447.13;;;15.15;100.00
13767;BME280;47980;48.794;9.176;2023-05-09T02:34:27;98453.34;;;15.04;100.00
13767;BME280;47980;48.794;9.176;2023-05-09T02:36:58;98443.84;;;14.75;100.00
13767;BME280;47980;48.794;9.176;2023-05-09T02:39:30;98440.31;;;14.71;100.00
13767;BME280;47980;48.794;9.176;2023-05-09T02:42:05;98443.84;;;15.06;100.00
13767;BME280;47980;48.794;9.176;2023-05-09T02:44:37;98437.56;;;15.14;100.00
13767;BME280;47980;48.794;9.176;2023-05-09T02:47:10;98438.25;;;15.11;100.00
13767;BME280;47980;48.794;9.176;2023-05-09T02:49:41;98434.44;;;15.12;100.00
13767;BME280;47980;48.794;9.176;2023-05-09T02:52:14;98426.16;;;15.17;100.00
13767;BME280;47980;48.794;9.176;2023-05-09T02:54:46;98430.56;;;15.10;100.00
13767;BME280;47980;48.794;9.176;2023-05-09T02:57:18;98428.75;;;14.98;100.00
13767;BME280;47980;48.794;9.176;2023-05-09T02:59:50;98414.03;;;15.04;100.00
13767;BME280;47980;48.794;9.176;2023-05-09T03:02:23;98413.75;;;15.09;100.00
13767;BME280;47980;48.794;9.176;2023-05-09T03:04:55;98410.41;;;15.12;100.00
13767;BME280;47980;48.794;9.176;2023-05-09T03:07:26;98409.47;;;15.05;100.00
13767;BME280;47980;48.794;9.176;2023-05-09T03:09:58;98412.31;;;14.96;100.00
13767;BME280;47980;48.794;9.176;2023-05-09T03:12:30;98419.88;;;14.94;100.00
13767;BME280;47980;48.794;9.176;2023-05-09T03:15:01;98411.19;;;14.81;100.00
13767;BME280;47980;48.794;9.176;2023-05-09T03:17:34;98413.84;;;14.81;100.00
13767;BME280;47980;48.794;9.176;2023-05-09T03:20:07;98405.31;;;14.91;100.00
13767;BME280;47980;48.794;9.176;2023-05-09T03:22:39;98408.09;;;14.79;100.00
13767;BME280;47980;48.794;9.176;2023-05-09T03:25:11;98410.16;;;14.86;100.00
13767;BME280;47980;48.794;9.176;2023-05-09T03:27:42;98404.06;;;14.85;100.00
13767;BME280;47980;48.794;9.176;2023-05-09T03:30:14;98411.03;;;14.90;100.00
13767;BME280;47980;48.794;9.176;2023-05-09T03:32:47;98396.53;;;14.91;100.00
13767;BME280;47980;48.794;9.176;2023-05-09T03:35:19;98397.31;;;14.91;100.00
13767;BME280;47980;48.794;9.176;2023-05-09T03:37:50;98390.34;;;14.87;100.00
13767;BME280;47980;48.794;9.176;2023-05-09T03:40:22;98390.44;;;14.75;100.00
13767;BME280;47980;48.794;9.176;2023-05-09T03:42:53;98393.97;;;14.79;100.00
13767;BME280;47980;48.794;9.176;2023-05-09T03:45:25;98397.31;;;14.76;100.00
13767;BME280;47980;48.794;9.176;2023-05-09T03:47:57;98392.84;;;14.80;100.00
13767;BME280;47980;48.794;9.176;2023-05-09T03:50:29;98386.53;;;14.72;100.00
13767;BME280;47980;48.794;9.176;2023-05-09T03:53:00;98389.41;;;14.63;100.00
13767;BME280;47980;48.794;9.176;2023-05-09T03:55:32;98394.19;;;14.74;100.00
13767;BME280;47980;48.794;9.176;2023-05-09T03:58:04;98391.47;;;14.86;100.00
13767;BME280;47980;48.794;9.176;2023-05-09T04:00:35;98394.53;;;14.88;100.00
13767;BME280;47980;48.794;9.176;2023-05-09T04:03:08;98382.41;;;14.90;100.00
13767;BME280;47980;48.794;9.176;2023-05-09T04:05:39;98393.28;;;14.82;100.00
13767;BME280;47980;48.794;9.176;2023-05-09T04:08:11;98388.09;;;14.73;100.00
13767;BME280;47980;48.794;9.176;2023-05-09T04:10:42;98387.31;;;14.73;100.00
13767;BME280;47980;48.794;9.176;2023-05-09T04:13:14;98380.84;;;14.74;100.00
13767;BME280;47980;48.794;9.176;2023-05-09T04:15:45;98386.09;;;14.70;100.00
13767;BME280;47980;48.794;9.176;2023-05-09T04:18:18;98383.88;;;14.72;100.00
13767;BME280;47980;48.794;9.176;2023-05-09T04:20:50;98383.09;;;14.87;100.00
13767;BME280;47980;48.794;9.176;2023-05-09T04:23:21;98384.19;;;15.02;100.00
13767;BME280;47980;48.794;9.176;2023-05-09T04:25:53;98382.94;;;14.96;100.00
13767;BME280;47980;48.794;9.176;2023-05-09T04:28:26;98379.78;;;15.10;100.00
13767;BME280;47980;48.794;9.176;2023-05-09T04:30:57;98391.16;;;15.23;100.00
13767;BME280;47980;48.794;9.176;2023-05-09T04:33:30;98388.22;;;15.28;100.00
13767;BME280;47980;48.794;9.176;2023-05-09T04:36:02;98393.31;;;15.33;100.00
13767;BME280;47980;48.794;9.176;2023-05-09T04:38:33;98392.88;;;15.31;100.00
13767;BME280;47980;48.794;9.176;2023-05-09T04:41:05;98393.88;;;15.42;100.00
13767;BME280;47980;48.794;9.176;2023-05-09T04:43:36;98394.38;;;15.48;100.00
13767;BME280;47980;48.794;9.176;2023-05-09T04:46:08;98397.84;;;15.48;100.00
13767;BME280;47980;48.794;9.176;2023-05-09T04:48:41;98398.09;;;15.43;100.00
13767;BME280;47980;48.794;9.176;2023-05-09T04:51:12;98403.59;;;15.66;100.00
13767;BME280;47980;48.794;9.176;2023-05-09T04:53:43;98401.47;;;15.75;100.00
13767;BME280;47980;48.794;9.176;2023-05-09T04:56:15;98400.91;;;15.66;100.00
13767;BME280;47980;48.794;9.176;2023-05-09T04:58:47;98401.59;;;15.63;100.00
13767;BME280;47980;48.794;9.176;2023-05-09T05:01:18;98401.88;;;15.58;100.00
13767;BME280;47980;48.794;9.176;2023-05-09T05:03:51;98402.34;;;15.44;100.00
13767;BME280;47980;48.794;9.176;2023-05-09T05:06:22;98393.94;;;15.61;100.00
13767;BME280;47980;48.794;9.176;2023-05-09T05:08:54;98392.53;;;15.68;100.00
13767;BME280;47980;48.794;9.176;2023-05-09T05:11:25;98386.16;;;15.56;100.00
13767;BME280;47980;48.794;9.176;2023-05-09T05:13:57;98395.28;;;15.71;100.00
13767;BME280;47980;48.794;9.176;2023-05-09T05:16:28;98394.25;;;15.95;100.00
13767;BME280;47980;48.794;9.176;2023-05-09T05:19:01;98393.31;;;16.07;100.00
13767;BME280;47980;48.794;9.176;2023-05-09T05:21:33;98395.84;;;16.19;100.00
13767;BME280;47980;48.794;9.176;2023-05-09T05:24:04;98387.16;;;16.45;100.00
13767;BME280;47980;48.794;9.176;2023-05-09T05:26:36;98395.00;;;16.15;100.00
13767;BME280;47980;48.794;9.176;2023-05-09T05:29:07;98388.75;;;16.27;99.05
13767;BME280;47980;48.794;9.176;2023-05-09T05:31:39;98392.78;;;16.40;98.39
13767;BME280;47980;48.794;9.176;2023-05-09T05:34:12;98382.97;;;16.05;99.79
13767;BME280;47980;48.794;9.176;2023-05-09T05:36:45;98382.13;;;16.21;100.00
13767;BME280;47980;48.794;9.176;2023-05-09T05:39:17;98381.63;;;16.15;100.00
13767;BME280;47980;48.794;9.176;2023-05-09T05:41:48;98377.66;;;16.51;97.82
13767;BME280;47980;48.794;9.176;2023-05-09T05:44:21;98381.50;;;16.50;99.34
13767;BME280;47980;48.794;9.176;2023-05-09T05:46:52;98378.22;;;16.60;97.99
13767;BME280;47980;48.794;9.176;2023-05-09T05:49:25;98379.66;;;16.54;98.30
13767;BME280;47980;48.794;9.176;2023-05-09T05:51:56;98373.63;;;16.61;97.17
13767;BME280;47980;48.794;9.176;2023-05-09T05:54:28;98375.13;;;16.58;97.30
13767;BME280;47980;48.794;9.176;2023-05-09T05:56:59;98376.19;;;16.54;98.63
13767;BME280;47980;48.794;9.176;2023-05-09T05:59:31;98375.72;;;16.71;96.46
13767;BME280;47980;48.794;9.176;2023-05-09T06:02:02;98371.97;;;16.99;94.15
13767;BME280;47980;48.794;9.176;2023-05-09T06:04:35;98376.69;;;17.32;90.89
13767;BME280;47980;48.794;9.176;2023-05-09T06:07:07;98368.06;;;17.49;89.26
13767;BME280;47980;48.794;9.176;2023-05-09T06:09:38;98366.00;;;17.66;86.65
13767;BME280;47980;48.794;9.176;2023-05-09T06:12:10;98361.75;;;17.95;86.23
13767;BME280;47980;48.794;9.176;2023-05-09T06:14:45;98360.91;;;18.65;83.98
13767;BME280;47980;48.794;9.176;2023-05-09T06:17:17;98357.03;;;18.59;81.83
13767;BME280;47980;48.794;9.176;2023-05-09T06:19:49;98355.91;;;19.12;78.11
13767;BME280;47980;48.794;9.176;2023-05-09T06:22:21;98356.47;;;19.49;77.62
13767;BME280;47980;48.794;9.176;2023-05-09T06:24:52;98344.56;;;19.43;77.58
13767;BME280;47980;48.794;9.176;2023-05-09T06:27:24;98352.56;;;19.29;79.80
13767;BME280;47980;48.794;9.176;2023-05-09T06:29:56;98347.19;;;18.74;80.26
13767;BME280;47980;48.794;9.176;2023-05-09T06:32:27;98344.66;;;18.51;81.75
13767;BME280;47980;48.794;9.176;2023-05-09T06:35:00;98345.28;;;18.37;83.98
13767;BME280;47980;48.794;9.176;2023-05-09T06:37:32;98341.34;;;18.24;82.54
13767;BME280;47980;48.794;9.176;2023-05-09T06:40:04;98338.44;;;18.43;81.33
13767;BME280;47980;48.794;9.176;2023-05-09T06:42:36;98341.84;;;18.37;80.64
13767;BME280;47980;48.794;9.176;2023-05-09T06:45:08;98336.44;;;18.33;81.09
13767;BME280;47980;48.794;9.176;2023-05-09T06:47:40;98341.31;;;18.20;82.15
13767;BME280;47980;48.794;9.176;2023-05-09T06:50:13;98328.81;;;18.39;80.00
13767;BME280;47980;48.794;9.176;2023-05-09T06:52:45;98338.38;;;18.36;80.83
13767;BME280;47980;48.794;9.176;2023-05-09T06:55:17;98335.81;;;18.50;79.02
13767;BME280;47980;48.794;9.176;2023-05-09T06:57:48;98336.56;;;18.47;80.03
13767;BME280;47980;48.794;9.176;2023-05-09T07:00:21;98321.59;;;18.46;79.49
13767;BME280;47980;48.794;9.176;2023-05-09T07:02:52;98329.97;;;18.38;79.51
13767;BME280;47980;48.794;9.176;2023-05-09T07:05:25;98327.84;;;18.61;79.23
13767;BME280;47980;48.794;9.176;2023-05-09T07:07:56;98322.03;;;19.04;78.52
13767;BME280;47980;48.794;9.176;2023-05-09T07:10:28;98325.53;;;19.11;76.95
13767;BME280;47980;48.794;9.176;2023-05-09T07:12:59;98326.19;;;18.90;77.47
13767;BME280;47980;48.794;9.176;2023-05-09T07:15:31;98321.00;;;19.26;75.52
13767;BME280;47980;48.794;9.176;2023-05-09T07:18:03;98314.78;;;19.11;71.73
13767;BME280;47980;48.794;9.176;2023-05-09T07:20:36;98312.59;;;19.38;71.08
13767;BME280;47980;48.794;9.176;2023-05-09T07:23:07;98302.63;;;19.42;70.58
13767;BME280;47980;48.794;9.176;2023-05-09T07:25:39;98306.09;;;19.36;70.49
13767;BME280;47980;48.794;9.176;2023-05-09T07:28:10;98295.34;;;19.43;68.62
13767;BME280;47980;48.794;9.176;2023-05-09T07:30:42;98293.59;;;20.04;69.35
13767;BME280;47980;48.794;9.176;2023-05-09T07:33:15;98277.09;;;20.31;67.65
13767;BME280;47980;48.794;9.176;2023-05-09T07:35:48;98275.09;;;19.74;65.93
13767;BME280;47980;48.794;9.176;2023-05-09T07:38:20;98269.25;;;19.51;68.14
13767;BME280;47980;48.794;9.176;2023-05-09T07:40:51;98267.81;;;20.00;68.80
13767;BME280;47980;48.794;9.176;2023-05-09T07:43:23;98259.41;;;20.51;67.49
13767;BME280;47980;48.794;9.176;2023-05-09T07:45:54;98260.16;;;20.23;67.89
13767;BME280;47980;48.794;9.176;2023-05-09T07:48:26;98261.59;;;19.67;67.85
13767;BME280;47980;48.794;9.176;2023-05-09T07:50:59;98248.59;;;20.40;67.38
13767;BME280;47980;48.794;9.176;2023-05-09T07:53:30;98243.63;;;20.50;66.29
13767;BME280;47980;48.794;9.176;2023-05-09T07:56:02;98245.09;;;20.86;64.05
13767;BME280;47980;48.794;9.176;2023-05-09T07:58:36;98240.84;;;21.00;63.34
13767;BME280;47980;48.794;9.176;2023-05-09T08:01:07;98239.69;;;20.97;64.89
13767;BME280;47980;48.794;9.176;2023-05-09T08:03:39;98244.34;;;20.72;65.80
13767;BME280;47980;48.794;9.176;2023-05-09T08:06:11;98229.25;;;21.83;60.49
13767;BME280;47980;48.794;9.176;2023-05-09T08:08:43;98225.88;;;21.69;60.28
13767;BME280;47980;48.794;9.176;2023-05-09T08:11:14;98209.94;;;21.85;61.05
13767;BME280;47980;48.794;9.176;2023-05-09T08:13:46;98210.09;;;21.60;60.81
13767;BME280;47980;48.794;9.176;2023-05-09T08:16:17;98205.06;;;20.74;64.80
13767;BME280;47980;48.794;9.176;2023-05-09T08:18:49;98210.47;;;20.49;64.56
13767;BME280;47980;48.794;9.176;2023-05-09T08:21:22;98200.06;;;20.48;65.38
13767;BME280;47980;48.794;9.176;2023-05-09T08:23:53;98199.72;;;20.17;68.00
13767;BME280;47980;48.794;9.176;2023-05-09T08:26:26;98197.41;;;20.51;66.84
13767;BME280;47980;48.794;9.176;2023-05-09T08:28:57;98195.03;;;20.82;68.63
13767;BME280;47980;48.794;9.176;2023-05-09T08:31:29;98191.00;;;21.26;65.51
13767;BME280;47980;48.794;9.176;2023-05-09T08:34:00;98188.63;;;21.31;62.50
13767;BME280;47980;48.794;9.176;2023-05-09T08:36:33;98181.00;;;21.85;63.87
13767;BME280;47980;48.794;9.176;2023-05-09T08:39:05;98183.31;;;21.21;63.01
13767;BME280;47980;48.794;9.176;2023-05-09T08:41:38;98170.97;;;21.20;62.18
13767;BME280;47980;48.794;9.176;2023-05-09T08:44:10;98171.09;;;21.72;63.37
13767;BME280;47980;48.794;9.176;2023-05-09T08:46:43;98163.34;;;21.74;62.56
13767;BME280;47980;48.794;9.176;2023-05-09T08:49:15;98168.97;;;21.31;64.74
13767;BME280;47980;48.794;9.176;2023-05-09T08:51:49;98167.28;;;21.62;64.45
13767;BME280;47980;48.794;9.176;2023-05-09T08:54:22;98173.25;;;21.91;63.17
13767;BME280;47980;48.794;9.176;2023-05-09T08:56:53;98171.44;;;21.04;65.21
13767;BME280;47980;48.794;9.176;2023-05-09T08:59:25;98172.63;;;20.96;65.97
13767;BME280;47980;48.794;9.176;2023-05-09T09:01:57;98174.59;;;20.88;65.58
13767;BME280;47980;48.794;9.176;2023-05-09T09:04:29;98174.44;;;21.20;64.91
13767;BME280;47980;48.794;9.176;2023-05-09T09:07:03;98174.53;;;20.95;66.08
13767;BME280;47980;48.794;9.176;2023-05-09T09:09:36;98167.66;;;20.83;66.21
13767;BME280;47980;48.794;9.176;2023-05-09T09:12:09;98160.19;;;21.20;65.40
13767;BME280;47980;48.794;9.176;2023-05-09T09:14:48;98163.94;;;21.44;62.91
13767;BME280;47980;48.794;9.176;2023-05-09T09:17:24;98156.94;;;21.53;64.53
13767;BME280;47980;48.794;9.176;2023-05-09T09:20:00;98146.22;;;21.95;62.03
13767;BME280;47980;48.794;9.176;2023-05-09T09:22:36;98155.91;;;21.88;62.65
13767;BME280;47980;48.794;9.176;2023-05-09T09:25:10;98150.53;;;21.26;64.39
13767;BME280;47980;48.794;9.176;2023-05-09T09:27:42;98142.63;;;20.79;66.28
13767;BME280;47980;48.794;9.176;2023-05-09T09:30:14;98136.31;;;21.77;63.34
13767;BME280;47980;48.794;9.176;2023-05-09T09:32:45;98146.66;;;21.90;60.95
13767;BME280;47980;48.794;9.176;2023-05-09T09:35:17;98134.47;;;22.16;59.85
13767;BME280;47980;48.794;9.176;2023-05-09T09:37:55;98121.97;;;22.29;59.83
13767;BME280;47980;48.794;9.176;2023-05-09T09:40:27;98122.50;;;22.13;61.95
13767;BME280;47980;48.794;9.176;2023-05-09T09:42:59;98120.50;;;23.20;58.11
13767;BME280;47980;48.794;9.176;2023-05-09T09:45:31;98117.66;;;23.03;56.97
13767;BME280;47980;48.794;9.176;2023-05-09T09:48:05;98111.47;;;22.38;60.88
13767;BME280;47980;48.794;9.176;2023-05-09T09:50:37;98108.06;;;22.99;58.13
13767;BME280;47980;48.794;9.176;2023-05-09T09:53:10;98104.41;;;22.48;58.40
13767;BME280;47980;48.794;9.176;2023-05-09T09:55:48;98102.91;;;22.77;58.49
13767;BME280;47980;48.794;9.176;2023-05-09T09:58:21;98097.97;;;22.69;59.62
13767;BME280;47980;48.794;9.176;2023-05-09T10:01:04;98084.50;;;23.23;59.51
13767;BME280;47980;48.794;9.176;2023-05-09T10:03:37;98075.16;;;22.70;58.77
13767;BME280;47980;48.794;9.176;2023-05-09T10:06:09;98074.69;;;23.05;56.73
13767;BME280;47980;48.794;9.176;2023-05-09T10:08:44;98079.25;;;23.39;57.16
13767;BME280;47980;48.794;9.176;2023-05-09T10:11:17;98070.41;;;23.35;55.76
13767;BME280;47980;48.794;9.176;2023-05-09T10:13:51;98067.19;;;22.59;58.03
13767;BME280;47980;48.794;9.176;2023-05-09T10:16:23;98060.94;;;22.31;59.52
13767;BME280;47980;48.794;9.176;2023-05-09T10:18:55;98064.31;;;21.60;61.12
13767;BME280;47980;48.794;9.176;2023-05-09T10:21:27;98047.28;;;21.14;62.74
13767;BME280;47980;48.794;9.176;2023-05-09T10:24:02;98042.88;;;21.83;60.15
13767;BME280;47980;48.794;9.176;2023-05-09T10:26:37;98038.28;;;22.18;58.84
13767;BME280;47980;48.794;9.176;2023-05-09T10:29:11;98039.59;;;22.41;60.76
13767;BME280;47980;48.794;9.176;2023-05-09T10:31:45;98032.09;;;22.21;58.93
13767;BME280;47980;48.794;9.176;2023-05-09T10:34:18;98029.38;;;21.83;60.39
13767;BME280;47980;48.794;9.176;2023-05-09T10:36:51;98030.28;;;22.45;59.90
13767;BME280;47980;48.794;9.176;2023-05-09T10:39:26;98028.41;;;22.69;56.14
13767;BME280;47980;48.794;9.176;2023-05-09T10:41:57;98024.66;;;22.29;57.97
13767;BME280;47980;48.794;9.176;2023-05-09T10:44:30;98011.63;;;22.51;58.39
13767;BME280;47980;48.794;9.176;2023-05-09T10:47:02;98015.47;;;22.53;57.03
13767;BME280;47980;48.794;9.176;2023-05-09T10:49:34;98015.31;;;22.95;59.19
13767;BME280;47980;48.794;9.176;2023-05-09T10:52:06;98020.34;;;22.96;58.93
13767;BME280;47980;48.794;9.176;2023-05-09T10:54:38;98000.09;;;23.04;57.61
13767;BME280;47980;48.794;9.176;2023-05-09T10:57:11;97999.72;;;22.75;57.15
13767;BME280;47980;48.794;9.176;2023-05-09T10:59:42;97999.31;;;22.19;59.22
13767;BME280;47980;48.794;9.176;2023-05-09T11:02:18;97982.28;;;23.30;58.40
13767;BME280;47980;48.794;9.176;2023-05-09T11:05:14;97982.63;;;23.56;54.41
13767;BME280;47980;48.794;9.176;2023-05-09T11:07:46;97976.75;;;23.38;55.81
13767;BME280;47980;48.794;9.176;2023-05-09T11:10:19;97967.25;;;23.73;55.63
13767;BME280;47980;48.794;9.176;2023-05-09T11:12:54;97959.56;;;24.11;54.19
13767;BME280;47980;48.794;9.176;2023-05-09T11:15:26;97960.25;;;24.15;53.73
13767;BME280;47980;48.794;9.176;2023-05-09T11:18:05;97955.31;;;23.23;56.59
13767;BME280;47980;48.794;9.176;2023-05-09T11:20:41;97953.44;;;23.44;56.02
13767;BME280;47980;48.794;9.176;2023-05-09T11:23:14;97942.81;;;22.82;59.44
13767;BME280;47980;48.794;9.176;2023-05-09T11:25:48;97943.25;;;23.51;58.85
13767;BME280;47980;48.794;9.176;2023-05-09T11:28:27;97935.25;;;22.97;55.87
13767;BME280;47980;48.794;9.176;2023-05-09T11:31:17;97920.31;;;23.36;54.59
13767;BME280;47980;48.794;9.176;2023-05-09T11:33:49;97927.16;;;23.64;56.14
13767;BME280;47980;48.794;9.176;2023-05-09T11:36:29;97922.94;;;23.83;56.17
13767;BME280;47980;48.794;9.176;2023-05-09T11:39:04;97920.69;;;23.78;53.32
13767;BME280;47980;48.794;9.176;2023-05-09T11:41:44;97907.91;;;23.39;54.62
13767;BME280;47980;48.794;9.176;2023-05-09T11:44:17;97904.06;;;23.80;54.96
13767;BME280;47980;48.794;9.176;2023-05-09T11:46:48;97908.91;;;23.68;54.22
13767;BME280;47980;48.794;9.176;2023-05-09T11:49:20;97893.50;;;23.42;52.56
13767;BME280;47980;48.794;9.176;2023-05-09T11:51:52;97902.75;;;23.68;53.41
13767;BME280;47980;48.794;9.176;2023-05-09T11:54:23;97887.69;;;24.03;54.68
13767;BME280;47980;48.794;9.176;2023-05-09T11:56:57;97884.88;;;24.26;53.79
13767;BME280;47980;48.794;9.176;2023-05-09T11:59:30;97885.34;;;24.58;53.85
13767;BME280;47980;48.794;9.176;2023-05-09T12:02:02;97880.50;;;24.65;50.85
13767;BME280;47980;48.794;9.176;2023-05-09T12:04:34;97876.22;;;24.32;51.30
13767;BME280;47980;48.794;9.176;2023-05-09T12:07:06;97869.38;;;24.43;51.06
13767;BME280;47980;48.794;9.176;2023-05-09T12:09:38;97868.56;;;24.10;51.93
13767;BME280;47980;48.794;9.176;2023-05-09T12:12:12;97870.50;;;24.46;51.70
13767;BME280;47980;48.794;9.176;2023-05-09T12:14:44;97862.13;;;24.40;53.95
13767;BME280;47980;48.794;9.176;2023-05-09T12:17:15;97858.03;;;24.65;50.23
13767;BME280;47980;48.794;9.176;2023-05-09T12:19:47;97860.44;;;24.10;51.73
13767;BME280;47980;48.794;9.176;2023-05-09T12:22:18;97850.47;;;23.87;52.46
13767;BME280;47980;48.794;9.176;2023-05-09T12:24:50;97844.66;;;23.69;53.02
13767;BME280;47980;48.794;9.176;2023-05-09T12:27:24;97838.75;;;23.54;55.00
13767;BME280;47980;48.794;9.176;2023-05-09T12:29:59;97826.84;;;23.88;52.75
13767;BME280;47980;48.794;9.176;2023-05-09T12:32:30;97834.34;;;23.60;53.92
13767;BME280;47980;48.794;9.176;2023-05-09T12:35:02;97823.81;;;23.86;54.77
13767;BME280;47980;48.794;9.176;2023-05-09T12:37:34;97819.13;;;23.66;54.87
13767;BME280;47980;48.794;9.176;2023-05-09T12:40:08;97816.81;;;24.21;53.35
13767;BME280;47980;48.794;9.176;2023-05-09T12:42:44;97818.59;;;24.27;52.96
13767;BME280;47980;48.794;9.176;2023-05-09T12:45:15;97801.72;;;23.47;51.28
13767;BME280;47980;48.794;9.176;2023-05-09T12:47:50;97804.69;;;24.09;52.89
13767;BME280;47980;48.794;9.176;2023-05-09T12:50:30;97797.63;;;23.95;52.51
13767;BME280;47980;48.794;9.176;2023-05-09T12:53:04;97799.97;;;24.46;52.66
13767;BME280;47980;48.794;9.176;2023-05-09T12:55:38;97796.72;;;24.84;52.22
13767;BME280;47980;48.794;9.176;2023-05-09T12:58:13;97786.84;;;25.35;50.92
13767;BME280;47980;48.794;9.176;2023-05-09T13:00:45;97788.00;;;25.34;50.87
13767;BME280;47980;48.794;9.176;2023-05-09T13:03:24;97784.44;;;25.08;47.99
13767;BME280;47980;48.794;9.176;2023-05-09T13:05:57;97772.19;;;24.42;50.43
13767;BME280;47980;48.794;9.176;2023-05-09T13:08:29;97777.84;;;24.64;51.79
13767;BME280;47980;48.794;9.176;2023-05-09T13:11:01;97770.06;;;24.00;51.11
13767;BME280;47980;48.794;9.176;2023-05-09T13:13:34;97763.69;;;24.07;52.82
13767;BME280;47980;48.794;9.176;2023-05-09T13:16:06;97764.06;;;24.42;51.18
13767;BME280;47980;48.794;9.176;2023-05-09T13:18:37;97754.44;;;24.70;51.40
13767;BME280;47980;48.794;9.176;2023-05-09T13:21:09;97750.31;;;24.49;51.01
13767;BME280;47980;48.794;9.176;2023-05-09T13:23:40;97749.38;;;24.56;52.05
13767;BME280;47980;48.794;9.176;2023-05-09T13:26:13;97739.44;;;24.33;52.42